Time;durP1;ratioP1;P1;durP2;ratioP2;P2;SDS_P1;SDS_P2;PMS_P1;PMS_P2;Temp;Humidity;BMP_temperature;BMP_pressure;BME280_temperature;BME280_humidity;BME280_pressure;Samples;Min_cycle;Max_cycle;Signal;HPM_P1;HPM_P2
2020/12/03 00:02:50;;;;;;;30.90;20.07;;;;;;;;;;5032525;28;20033;-60
2020/12/03 00:05:44;;;;;;;28.47;18.37;;;;;;;;;;5000092;28;20070;-59
2020/12/03 00:08:19;;;;;;;29.80;18.60;;;;;;;;;;5000499;28;20184;-60
2020/12/03 00:11:00;;;;;;;25.10;17.40;;;;;;;;;;5000032;28;20163;-60
2020/12/03 00:13:29;;;;;;;28.75;20.08;;;;;;;;;;5023001;28;20037;-60
2020/12/03 00:19:02;;;;;;;30.93;19.97;;;;;;;;;;5034802;28;20103;-60
2020/12/03 00:21:51;;;;;;;31.50;19.47;;;;;;;;;;5021787;28;20053;-60
2020/12/03 00:24:29;;;;;;;28.47;18.50;;;;;;;;;;5039428;28;20091;-60
2020/12/03 00:27:22;;;;;;;25.57;16.50;;;;;;;;;;5039743;28;20605;-60
2020/12/03 00:30:17;;;;;;;;;;;;;;;;;;;;;
2020/12/03 00:32:43;;;;;;;31.00;20.73;;;;;;;;;;5039073;28;20116;-60
2020/12/03 00:38:23;;;;;;;35.67;17.00;;;;;;;;;;5032392;28;20042;-60
2020/12/03 00:41:15;;;;;;;24.87;16.77;;;;;;;;;;5039372;28;20025;-60
2020/12/03 00:43:53;;;;;;;27.90;17.90;;;;;;;;;;5050328;28;20052;-60
2020/12/03 00:49:47;;;;;;;28.20;18.70;;;;;;;;;;5039322;28;20033;-60
2020/12/03 00:52:13;;;;;;;29.10;20.40;;;;;;;;;;5029530;28;20053;-60
2020/12/03 00:57:56;;;;;;;30.10;20.90;;;;;;;;;;5009839;28;20336;-60
2020/12/03 01:00:31;;;;;;;26.00;19.93;;;;;;;;;;5022119;28;20068;-59
2020/12/03 01:03:31;;;;;;;32.43;20.23;;;;;;;;;;5019366;28;20474;-60
2020/12/03 01:06:07;;;;;;;25.80;20.13;;;;;;;;;;5061198;28;20052;-60
2020/12/03 01:09:07;;;;;;;28.43;17.77;;;;;;;;;;5061015;28;20055;-60
2020/12/03 01:11:46;;;;;;;30.00;19.87;;;;;;;;;;5060586;28;20033;-59
2020/12/03 01:14:21;;;;;;;35.87;21.77;;;;;;;;;;5060986;28;20032;-60
2020/12/03 01:20:33;;;;;;;25.53;18.90;;;;;;;;;;5045457;28;20029;-60
2020/12/03 01:23:14;;;;;;;26.57;19.97;;;;;;;;;;5056985;28;20045;-60
2020/12/03 01:25:49;;;;;;;31.77;19.47;;;;;;;;;;5059652;28;20029;-60
2020/12/03 01:28:21;;;;;;;33.73;20.07;;;;;;;;;;5059602;28;20334;-60
2020/12/03 01:31:36;;;;;;;;;;;;;;;;;;;;;
2020/12/03 01:37:57;;;;;;;32.33;19.90;;;;;;;;;;5079005;28;20143;-60
2020/12/03 01:50:03;;;;;;;;;;;;;;;;;;;;;
2020/12/03 01:52:53;;;;;;;;;;;;;;;;;;;;;
2020/12/03 01:55:20;;;;;;;25.20;19.13;;;;;;;;;;5076800;28;20119;-60
2020/12/03 02:04:04;;;;;;;32.37;20.53;;;;;;;;;;5080328;28;20074;-58
2020/12/03 02:06:51;;;;;;;30.87;23.23;;;;;;;;;;5078759;28;20016;-58
2020/12/03 02:09:39;;;;;;;31.23;20.90;;;;;;;;;;5078210;28;20078;-58
2020/12/03 02:15:13;;;;;;;29.47;20.83;;;;;;;;;;5079261;28;20124;-58
2020/12/03 02:17:50;;;;;;;31.43;20.70;;;;;;;;;;5079637;28;20028;-57
2020/12/03 02:21:00;;;;;;;29.47;20.93;;;;;;;;;;5077441;28;20478;-58
2020/12/03 02:23:52;;;;;;;32.20;21.43;;;;;;;;;;5078575;28;20442;-57
2020/12/03 02:26:34;;;;;;;36.13;22.83;;;;;;;;;;5079127;28;20017;-58
2020/12/03 02:29:24;;;;;;;33.00;20.57;;;;;;;;;;5079755;28;20021;-58
2020/12/03 02:32:23;;;;;;;35.47;21.77;;;;;;;;;;5079668;28;20036;-58
2020/12/03 02:59:28;;;;;;;;;;;;;;;;;;;;;
2020/12/03 03:05:15;;;;;;;29.63;19.13;;;;;;;;;;5081287;28;20040;-58
2020/12/03 03:08:21;;;;;;;33.13;24.60;;;;;;;;;;5058240;28;20051;-57
2020/12/03 03:21:16;;;;;;;40.77;22.90;;;;;;;;;;4924395;29;20036;-58
2020/12/03 03:23:44;;;;;;;32.13;24.17;;;;;;;;;;4923844;29;20047;-58
2020/12/03 03:26:42;;;;;;;38.33;23.37;;;;;;;;;;4980962;28;20066;-58
2020/12/03 03:32:09;;;;;;;35.37;20.57;;;;;;;;;;4982185;28;20170;-57
2020/12/03 03:34:40;;;;;;;34.47;24.77;;;;;;;;;;5023727;28;20394;-58
2020/12/03 03:37:51;;;;;;;;;;;;;;;;;;;;;
2020/12/03 03:40:28;;;;;;;25.93;22.67;;;;;;;;;;5059999;28;20081;-57
2020/12/03 03:43:10;;;;;;;28.03;20.53;;;;;;;;;;5060021;28;20061;-57
2020/12/03 03:45:37;;;;;;;36.70;23.00;;;;;;;;;;5061736;28;20036;-57
2020/12/03 03:48:25;;;;;;;34.47;23.37;;;;;;;;;;5042130;28;20065;-58
2020/12/03 03:51:21;;;;;;;41.93;22.77;;;;;;;;;;5062538;28;20505;-57
2020/12/03 04:00:22;;;;;;;41.13;24.57;;;;;;;;;;5061978;28;20059;-58
2020/12/03 04:02:55;;;;;;;30.90;21.20;;;;;;;;;;5061912;28;20025;-58
2020/12/03 04:05:55;;;;;;;37.20;24.30;;;;;;;;;;5041139;28;20037;-58
2020/12/03 04:08:43;;;;;;;35.80;22.40;;;;;;;;;;5062236;28;20028;-57
2020/12/03 04:11:16;;;;;;;41.23;22.67;;;;;;;;;;5062153;28;20032;-58
2020/12/03 04:13:58;;;;;;;35.47;21.90;;;;;;;;;;5061935;28;20033;-57
2020/12/03 04:16:43;;;;;;;40.03;24.10;;;;;;;;;;5044878;28;20079;-57
2020/12/03 04:19:30;;;;;;;35.17;24.90;;;;;;;;;;5042992;28;20025;-58
2020/12/03 04:22:17;;;;;;;40.87;23.53;;;;;;;;;;5061788;28;20060;-57
2020/12/03 04:31:39;;;;;;;38.53;22.63;;;;;;;;;;4977904;28;20381;-57
2020/12/03 04:34:20;;;;;;;34.80;23.53;;;;;;;;;;4958340;28;20027;-58
2020/12/03 04:40:08;;;;;;;26.52;20.67;;;;;;;;;;5073617;28;20083;-57
2020/12/03 04:42:36;;;;;;;41.73;24.27;;;;;;;;;;5057561;28;20040;-58
2020/12/03 04:45:23;;;;;;;29.40;21.50;;;;;;;;;;5053786;28;20057;-58
2020/12/03 04:51:22;;;;;;;33.10;21.90;;;;;;;;;;5033815;28;20063;-58
2020/12/03 04:54:20;;;;;;;34.77;21.03;;;;;;;;;;5014330;28;20057;-58
2020/12/03 05:00:05;;;;;;;34.27;19.47;;;;;;;;;;5014629;28;20069;-57
2020/12/03 05:02:50;;;;;;;33.47;22.37;;;;;;;;;;4996996;28;20034;-58
2020/12/03 05:05:39;;;;;;;34.60;22.23;;;;;;;;;;4996997;28;20141;-59
2020/12/03 05:08:29;;;;;;;27.17;18.57;;;;;;;;;;4947181;28;20035;-59
2020/12/03 05:11:20;;;;;;;32.03;19.00;;;;;;;;;;4983146;28;20448;-58
2020/12/03 05:14:37;;;;;;;;;;;;;;;;;;;;;
2020/12/03 05:17:28;;;;;;;38.80;21.43;;;;;;;;;;4993956;28;20048;-59
2020/12/03 05:20:12;;;;;;;25.77;19.03;;;;;;;;;;4994700;28;20038;-59
2020/12/03 05:22:55;;;;;;;25.50;17.93;;;;;;;;;;4977290;28;20042;-59
2020/12/03 05:25:39;;;;;;;;;;;;;;;;;;;;;
2020/12/03 05:28:32;;;;;;;31.23;19.73;;;;;;;;;;4993536;28;20130;-59
2020/12/03 05:31:39;;;;;;;;;;;;;;;;;;;;;
2020/12/03 05:37:19;;;;;;;25.93;17.40;;;;;;;;;;5053063;28;20142;-59
2020/12/03 05:42:57;;;;;;;22.23;18.00;;;;;;;;;;5053751;28;20033;-59
2020/12/03 05:45:34;;;;;;;26.47;19.67;;;;;;;;;;5074006;28;20028;-58
2020/12/03 05:48:07;;;;;;;23.23;17.73;;;;;;;;;;5074625;28;20455;-59
2020/12/03 05:51:01;;;;;;;23.67;15.80;;;;;;;;;;5073165;28;20025;-59
2020/12/03 05:53:39;;;;;;;18.03;12.57;;;;;;;;;;5051924;28;20542;-59
2020/12/03 05:59:27;;;;;;;22.20;16.17;;;;;;;;;;5051918;28;20466;-59
2020/12/03 06:02:43;;;;;;;21.43;14.13;;;;;;;;;;5051627;28;20064;-59
2020/12/03 06:05:43;;;;;;;18.70;16.03;;;;;;;;;;5009981;28;20037;-59
2020/12/03 06:08:31;;;;;;;22.13;15.67;;;;;;;;;;5050623;28;20502;-59
2020/12/03 06:11:15;;;;;;;23.13;14.27;;;;;;;;;;5051635;28;20017;-59
2020/12/03 06:14:32;;;;;;;18.67;13.87;;;;;;;;;;5052149;28;20048;-59
2020/12/03 06:17:13;;;;;;;24.07;15.33;;;;;;;;;;4965621;28;20097;-59
2020/12/03 06:20:20;;;;;;;;;;;;;;;;;;4973460;28;20039;-60
2020/12/03 06:22:56;;;;;;;21.37;13.80;;;;;;;;;;4968450;28;19917;-58
2020/12/03 06:25:33;;;;;;;19.80;14.35;;;;;;;;;;5017038;28;20025;-59
2020/12/03 06:28:05;;;;;;;17.47;13.77;;;;;;;;;;5035943;28;20418;-59
2020/12/03 06:30:55;;;;;;;21.37;14.77;;;;;;;;;;5035202;28;20546;-59
2020/12/03 06:36:44;;;;;;;17.70;13.33;;;;;;;;;;5011003;28;20063;-59
2020/12/03 06:39:26;;;;;;;18.80;14.47;;;;;;;;;;5037414;28;20057;-59
2020/12/03 06:42:21;;;;;;;23.53;14.37;;;;;;;;;;5055932;28;20044;-59
2020/12/03 06:45:19;;;;;;;;;;;;;;;;;;;;;
2020/12/03 06:48:22;;;;;;;19.60;13.97;;;;;;;;;;5057675;28;20027;-59
2020/12/03 06:50:57;;;;;;;22.63;13.70;;;;;;;;;;5057716;28;20033;-58
2020/12/03 06:54:00;;;;;;;20.83;14.83;;;;;;;;;;5058063;28;20075;-58
2020/12/03 06:56:52;;;;;;;19.73;13.37;;;;;;;;;;5057332;28;20036;-59
2020/12/03 06:59:33;;;;;;;19.77;13.57;;;;;;;;;;5058205;28;20394;-59
2020/12/03 07:02:33;;;;;;;26.40;14.97;;;;;;;;;;5056165;28;20033;-59
2020/12/03 07:05:32;;;;;;;17.00;13.80;;;;;;;;;;5058412;28;20067;-59
2020/12/03 07:08:22;;;;;;;21.03;15.30;;;;;;;;;;5056093;28;20633;-59
2020/12/03 07:11:19;;;;;;;18.83;15.67;;;;;;;;;;5014309;28;20030;-59
2020/12/03 07:16:49;;;;;;;22.30;15.87;;;;;;;;;;5046303;28;20040;-59
2020/12/03 07:19:40;;;;;;;20.00;14.60;;;;;;;;;;5057862;28;20029;-59
2020/12/03 07:22:24;;;;;;;19.98;14.88;;;;;;;;;;5057594;28;20182;-59
2020/12/03 07:25:04;;;;;;;18.30;13.70;;;;;;;;;;5057012;28;20033;-59
2020/12/03 07:27:54;;;;;;;14.63;12.53;;;;;;;;;;5058312;28;20040;-59
2020/12/03 07:33:58;;;;;;;17.63;12.87;;;;;;;;;;5044036;28;20065;-59
2020/12/03 07:36:51;;;;;;;18.90;14.17;;;;;;;;;;5057051;28;20060;-60
2020/12/03 07:39:54;;;;;;;18.50;14.47;;;;;;;;;;5075462;28;20486;-60
2020/12/03 07:52:40;;;;;;;14.40;10.80;;;;;;;;;;5061320;28;20653;-58
2020/12/03 07:55:40;;;;;;;14.80;12.13;;;;;;;;;;5075540;28;20028;-58
2020/12/03 07:58:34;;;;;;;13.63;10.57;;;;;;;;;;5075062;28;20563;-58
2020/12/03 08:01:12;;;;;;;14.70;11.17;;;;;;;;;;5055875;28;20086;-59
2020/12/03 08:03:58;;;;;;;14.43;11.63;;;;;;;;;;5075298;28;20037;-59
2020/12/03 08:06:40;;;;;;;18.90;11.73;;;;;;;;;;5058358;28;20056;-59
2020/12/03 08:09:16;;;;;;;13.50;10.00;;;;;;;;;;5057891;28;20486;-59
2020/12/03 08:12:13;;;;;;;;;;;;;;;;;;;;;
2020/12/03 08:14:50;;;;;;;9.10;7.70;;;;;;;;;;5075450;28;20393;-59
2020/12/03 08:17:31;;;;;;;15.13;10.17;;;;;;;;;;5053354;28;20043;-59
2020/12/03 08:20:16;;;;;;;13.70;10.70;;;;;;;;;;5075954;28;20102;-59
2020/12/03 08:25:58;;;;;;;13.77;9.47;;;;;;;;;;4990525;28;20167;-59
2020/12/03 08:28:27;;;;;;;18.40;11.93;;;;;;;;;;5067420;28;20044;-58
2020/12/03 08:33:58;;;;;;;18.33;13.63;;;;;;;;;;5075319;28;20044;-59
2020/12/03 08:39:56;;;;;;;15.77;10.63;;;;;;;;;;5067557;28;20494;-60
2020/12/03 08:42:37;;;;;;;13.23;10.97;;;;;;;;;;5074228;28;20097;-59
2020/12/03 08:45:06;;;;;;;13.65;12.23;;;;;;;;;;5041992;28;20029;-58
2020/12/03 08:47:45;;;;;;;14.07;12.53;;;;;;;;;;5040843;28;20082;-58
2020/12/03 08:50:32;;;;;;;12.23;10.30;;;;;;;;;;5057914;28;20025;-58
2020/12/03 08:53:18;;;;;;;18.67;11.97;;;;;;;;;;5075341;28;20024;-58
2020/12/03 08:59:11;;;;;;;13.87;10.83;;;;;;;;;;5072261;28;20031;-59
2020/12/03 09:01:53;;;;;;;;;;;;;;;;;;;;;
2020/12/03 09:10:48;;;;;;;16.60;12.57;;;;;;;;;;5075235;28;20094;-59
2020/12/03 09:13:35;;;;;;;15.30;11.97;;;;;;;;;;5074755;28;20397;-59
2020/12/03 09:16:02;;;;;;;14.70;11.70;;;;;;;;;;5051832;28;20021;-59
2020/12/03 09:18:37;;;;;;;14.53;9.53;;;;;;;;;;5074288;28;20028;-59
2020/12/03 09:21:20;;;;;;;14.50;11.43;;;;;;;;;;5055210;28;20462;-59
2020/12/03 09:24:09;;;;;;;;;;;;;;;;;;;;;
2020/12/03 09:26:53;;;;;;;13.27;11.73;;;;;;;;;;5066767;28;20051;-59
2020/12/03 09:29:35;;;;;;;13.13;11.80;;;;;;;;;;5075658;28;20084;-59
2020/12/03 09:32:22;;;;;;;15.87;11.47;;;;;;;;;;5075561;28;20025;-59
2020/12/03 09:38:25;;;;;;;16.43;11.27;;;;;;;;;;5019842;28;20049;-59
2020/12/03 09:41:12;;;;;;;19.73;11.73;;;;;;;;;;5054220;28;20025;-59
2020/12/03 09:44:09;;;;;;;16.77;11.10;;;;;;;;;;5053891;28;20086;-59
2020/12/03 09:46:44;;;;;;;13.30;11.57;;;;;;;;;;5052470;28;20044;-59
2020/12/03 09:49:35;;;;;;;13.30;10.63;;;;;;;;;;5053223;28;20048;-59
2020/12/03 09:55:12;;;;;;;;;;;;;;;;;;;;;
2020/12/03 10:00:56;;;;;;;14.50;10.57;;;;;;;;;;5043956;28;20111;-59
2020/12/03 10:03:47;;;;;;;12.00;10.37;;;;;;;;;;5053267;28;20037;-59
2020/12/03 10:06:35;;;;;;;13.40;10.70;;;;;;;;;;5054294;28;20033;-59
2020/12/03 10:09:35;;;;;;;17.17;9.33;;;;;;;;;;5054064;28;20376;-59
2020/12/03 10:12:16;;;;;;;;;;;;;;;;;;;;;
2020/12/03 10:14:55;;;;;;;12.77;9.63;;;;;;;;;;5033876;28;20063;-59
2020/12/03 10:17:43;;;;;;;22.00;10.93;;;;;;;;;;5052456;28;20032;-59
2020/12/03 10:20:46;;;;;;;14.13;12.00;;;;;;;;;;5050821;28;20537;-59
2020/12/03 10:23:46;;;;;;;12.23;8.47;;;;;;;;;;5051064;28;20044;-60
2020/12/03 10:26:43;;;;;;;12.00;9.52;;;;;;;;;;5052262;28;20094;-60
2020/12/03 10:29:26;;;;;;;13.33;11.07;;;;;;;;;;5049648;28;20112;-60
2020/12/03 10:32:03;;;;;;;15.57;8.87;;;;;;;;;;5032980;28;20025;-60
2020/12/03 10:34:51;;;;;;;11.27;9.17;;;;;;;;;;5047520;28;20404;-60
2020/12/03 10:37:36;;;;;;;10.03;9.07;;;;;;;;;;5051938;28;20041;-60
2020/12/03 10:40:11;;;;;;;12.73;10.13;;;;;;;;;;5035069;28;20509;-60
2020/12/03 10:43:04;;;;;;;12.90;9.70;;;;;;;;;;5052433;28;20486;-60
2020/12/03 10:45:52;;;;;;;12.70;9.50;;;;;;;;;;5034008;28;20545;-60
2020/12/03 10:48:56;;;;;;;12.63;9.03;;;;;;;;;;5051387;28;20486;-60
2020/12/03 10:51:23;;;;;;;11.03;8.60;;;;;;;;;;4976087;28;20519;-60
2020/12/03 10:53:58;;;;;;;13.43;10.77;;;;;;;;;;5023326;28;20041;-59
2020/12/03 10:56:50;;;;;;;11.30;9.90;;;;;;;;;;5051393;28;20029;-59
2020/12/03 10:59:32;;;;;;;;;;;;;;;;;;5032548;28;20124;-60
2020/12/03 11:02:18;;;;;;;10.37;7.70;;;;;;;;;;4992543;28;20387;-59
2020/12/03 11:04:50;;;;;;;9.23;7.60;;;;;;;;;;4991572;28;20039;-59
2020/12/03 11:07:40;;;;;;;12.47;9.80;;;;;;;;;;4960629;28;20031;-60
2020/12/03 11:10:17;;;;;;;12.73;9.57;;;;;;;;;;4992800;28;20094;-59
2020/12/03 11:13:11;;;;;;;9.63;8.50;;;;;;;;;;4992808;28;20542;-59
2020/12/03 11:16:06;;;;;;;9.07;8.00;;;;;;;;;;4975840;28;20034;-60
2020/12/03 11:19:20;;;;;;;8.80;7.33;;;;;;;;;;4990548;28;20034;-59
2020/12/03 11:25:20;;;;;;;10.07;7.60;;;;;;;;;;4979984;28;20031;-59
2020/12/03 11:28:11;;;;;;;8.27;7.47;;;;;;;;;;5018159;28;20400;-59
2020/12/03 11:31:03;;;;;;;11.00;7.50;;;;;;;;;;5026850;28;20522;-59
2020/12/03 11:36:18;;;;;;;8.40;6.57;;;;;;;;;;5057533;28;20079;-59
2020/12/03 11:38:57;;;;;;;11.90;7.77;;;;;;;;;;5058332;28;20105;-59
2020/12/03 11:50:40;;;;;;;10.80;7.03;;;;;;;;;;5077050;28;20035;-59
2020/12/03 11:53:26;;;;;;;9.90;6.60;;;;;;;;;;5058052;28;20104;-59
2020/12/03 11:56:37;;;;;;;10.90;6.63;;;;;;;;;;5053631;28;20497;-59
2020/12/03 11:59:31;;;;;;;6.83;5.13;;;;;;;;;;5044079;28;20025;-59
2020/12/03 12:02:07;;;;;;;10.27;6.37;;;;;;;;;;4971485;28;20113;-60
2020/12/03 12:13:13;;;;;;;8.17;5.73;;;;;;;;;;4976130;28;20457;-59
2020/12/03 12:15:49;;;;;;;7.90;6.13;;;;;;;;;;4976499;28;20034;-59
2020/12/03 12:18:31;;;;;;;8.43;6.77;;;;;;;;;;5047383;28;20033;-59
2020/12/03 12:21:24;;;;;;;12.37;7.03;;;;;;;;;;5076090;28;20455;-59
2020/12/03 12:24:07;;;;;;;;;;;;;;;;;;;;;
2020/12/03 12:32:58;;;;;;;;;;;;;;;;;;;;;
2020/12/03 12:44:12;;;;;;;8.73;5.67;;;;;;;;;;5013807;28;20121;-59
2020/12/03 12:46:51;;;;;;;8.20;6.03;;;;;;;;;;4996803;28;20499;-59
2020/12/03 12:49:31;;;;;;;9.70;6.03;;;;;;;;;;5068547;28;20039;-59
2020/12/03 12:52:28;;;;;;;;;;;;;;;;;;;;;
2020/12/03 12:55:21;;;;;;;6.00;4.37;;;;;;;;;;5075693;28;20038;-58
2020/12/03 12:58:10;;;;;;;6.40;5.00;;;;;;;;;;5076270;28;20024;-59
2020/12/03 13:00:45;;;;;;;8.73;5.87;;;;;;;;;;4973720;28;20102;-59
2020/12/03 13:03:14;;;;;;;6.40;4.93;;;;;;;;;;5069356;28;20041;-59
2020/12/03 13:05:55;;;;;;;10.13;5.83;;;;;;;;;;5075876;28;20070;-59
2020/12/03 13:08:49;;;;;;;8.87;5.93;;;;;;;;;;5057014;28;20082;-59
2020/12/03 13:14:55;;;;;;;8.90;6.03;;;;;;;;;;5075363;28;20033;-59
2020/12/03 13:17:31;;;;;;;6.60;4.47;;;;;;;;;;5075017;28;20078;-59
2020/12/03 13:20:14;;;;;;;8.50;6.17;;;;;;;;;;5057008;28;20466;-59
2020/12/03 13:22:58;;;;;;;9.60;6.47;;;;;;;;;;5056831;28;20044;-59
2020/12/03 13:25:39;;;;;;;7.53;4.73;;;;;;;;;;5075587;28;20091;-59
2020/12/03 13:34:22;;;;;;;9.43;5.40;;;;;;;;;;5042838;28;20025;-59
2020/12/03 13:36:58;;;;;;;11.07;6.03;;;;;;;;;;5074537;28;20500;-59
2020/12/03 13:39:31;;;;;;;9.93;6.17;;;;;;;;;;4971184;28;20055;-59
2020/12/03 13:42:14;;;;;;;7.13;5.43;;;;;;;;;;5053166;28;20124;-59
2020/12/03 13:44:57;;;;;;;9.93;6.53;;;;;;;;;;5055910;28;20053;-59
2020/12/03 13:47:34;;;;;;;8.50;5.90;;;;;;;;;;5054415;28;20474;-59
2020/12/03 13:50:31;;;;;;;;;;;;;;;;;;;;;
2020/12/03 13:53:19;;;;;;;8.97;6.10;;;;;;;;;;5055285;28;20035;-59
2020/12/03 13:55:54;;;;;;;8.87;5.40;;;;;;;;;;5054886;28;20025;-59
2020/12/03 13:58:49;;;;;;;9.87;5.07;;;;;;;;;;5050539;28;20154;-59
2020/12/03 14:01:20;;;;;;;8.53;6.20;;;;;;;;;;5053716;28;20075;-59
2020/12/03 14:04:13;;;;;;;8.10;5.33;;;;;;;;;;5053539;28;20475;-59
2020/12/03 14:07:03;;;;;;;6.83;4.60;;;;;;;;;;5015570;28;20108;-59
2020/12/03 14:09:47;;;;;;;13.60;6.35;;;;;;;;;;5054630;28;20023;-59
2020/12/03 14:12:27;;;;;;;6.87;6.03;;;;;;;;;;5054458;28;20032;-59
2020/12/03 14:15:20;;;;;;;9.47;6.07;;;;;;;;;;5053957;28;20063;-59
2020/12/03 14:17:58;;;;;;;8.90;6.07;;;;;;;;;;5054900;28;20103;-59
2020/12/03 14:20:46;;;;;;;7.77;6.40;;;;;;;;;;5053504;28;20056;-59
2020/12/03 14:23:25;;;;;;;14.67;6.50;;;;;;;;;;5054875;28;20036;-59
2020/12/03 14:26:10;;;;;;;7.97;5.37;;;;;;;;;;5054106;28;20482;-59
2020/12/03 14:28:44;;;;;;;10.40;6.47;;;;;;;;;;5054201;28;20045;-60
2020/12/03 14:31:50;;;;;;;7.90;6.03;;;;;;;;;;5054912;28;20494;-59
2020/12/03 14:37:45;;;;;;;12.50;7.77;;;;;;;;;;4992165;28;20531;-59
2020/12/03 14:41:04;;;;;;;8.87;6.27;;;;;;;;;;4981045;28;20081;-59
2020/12/03 14:43:43;;;;;;;10.23;6.53;;;;;;;;;;4933913;29;20050;-59
2020/12/03 14:46:17;;;;;;;8.73;7.13;;;;;;;;;;4934214;29;20028;-60
2020/12/03 14:52:14;;;;;;;8.60;7.37;;;;;;;;;;4974381;28;20432;-59
2020/12/03 14:55:04;;;;;;;11.10;7.63;;;;;;;;;;5042271;28;20032;-59
2020/12/03 15:00:29;;;;;;;11.33;7.33;;;;;;;;;;5048449;28;20060;-59
2020/12/03 15:03:10;;;;;;;9.83;7.90;;;;;;;;;;5057828;28;20047;-59
2020/12/03 15:06:03;;;;;;;9.17;7.33;;;;;;;;;;5057750;28;20105;-59
2020/12/03 15:08:48;;;;;;;12.27;7.67;;;;;;;;;;5058086;28;20023;-59
2020/12/03 15:14:33;;;;;;;17.33;7.83;;;;;;;;;;4995981;28;20053;-59
2020/12/03 15:17:05;;;;;;;8.27;7.40;;;;;;;;;;4990615;28;20436;-59
2020/12/03 15:19:41;;;;;;;14.00;8.43;;;;;;;;;;4979574;28;20034;-59
2020/12/03 15:22:27;;;;;;;12.27;8.00;;;;;;;;;;4979314;28;20041;-59
2020/12/03 15:28:22;;;;;;;12.20;7.00;;;;;;;;;;5058046;28;20040;-57
2020/12/03 15:34:15;;;;;;;;;;;;;;;;;;;;;
2020/12/03 15:37:13;;;;;;;12.47;9.43;;;;;;;;;;5057843;28;20029;-58
2020/12/03 15:46:04;;;;;;;9.20;7.07;;;;;;;;;;5077049;28;20028;-58
2020/12/03 15:48:34;;;;;;;12.07;8.20;;;;;;;;;;5077252;28;20032;-56
2020/12/03 15:51:13;;;;;;;16.90;8.33;;;;;;;;;;5057619;28;20182;-58
2020/12/03 15:56:51;;;;;;;12.70;8.20;;;;;;;;;;5062354;28;20047;-56
2020/12/03 15:59:29;;;;;;;;;;;;;;;;;;;;;
2020/12/03 16:02:38;;;;;;;9.63;7.23;;;;;;;;;;5077792;28;20031;-58
2020/12/03 16:08:49;;;;;;;10.70;7.67;;;;;;;;;;5014829;28;20085;-58
2020/12/03 16:11:40;;;;;;;11.50;8.07;;;;;;;;;;5014941;28;20567;-56
2020/12/03 16:14:28;;;;;;;16.27;7.93;;;;;;;;;;5066594;28;20428;-57
2020/12/03 16:19:58;;;;;;;11.53;7.73;;;;;;;;;;5076844;28;20536;-58
2020/12/03 16:22:35;;;;;;;11.47;8.47;;;;;;;;;;5058155;28;20037;-56
2020/12/03 16:25:21;;;;;;;10.63;7.83;;;;;;;;;;5077296;28;20039;-58
2020/12/03 16:28:32;;;;;;;10.50;6.73;;;;;;;;;;5055538;28;20036;-58
2020/12/03 16:31:30;;;;;;;10.50;7.90;;;;;;;;;;5072598;28;20040;-59
2020/12/03 16:34:06;;;;;;;;;;;;;;;;;;;;;
2020/12/03 16:43:11;;;;;;;;;;;;;;;;;;;;;
2020/12/03 16:45:56;;;;;;;10.57;7.18;;;;;;;;;;4969353;28;20038;-58
2020/12/03 16:48:28;;;;;;;7.77;6.37;;;;;;;;;;5076295;28;20402;-58
2020/12/03 16:51:14;;;;;;;11.13;8.57;;;;;;;;;;5057826;28;20461;-57
2020/12/03 16:53:50;;;;;;;8.90;7.43;;;;;;;;;;5063878;28;20109;-56
2020/12/03 16:56:34;;;;;;;14.13;9.87;;;;;;;;;;5075934;28;20405;-57
2020/12/03 16:59:39;;;;;;;12.73;9.37;;;;;;;;;;5058278;28;20027;-58
2020/12/03 17:02:49;;;;;;;12.87;8.27;;;;;;;;;;5072329;28;20035;-57
2020/12/03 17:05:27;;;;;;;11.43;6.77;;;;;;;;;;5058022;28;20416;-57
2020/12/03 17:08:12;;;;;;;12.53;7.90;;;;;;;;;;5075830;28;20382;-57
2020/12/03 17:10:54;;;;;;;8.33;7.03;;;;;;;;;;5056870;28;20085;-53
2020/12/03 17:13:52;;;;;;;8.50;6.50;;;;;;;;;;5075130;28;20050;-57
2020/12/03 17:16:47;;;;;;;10.13;6.13;;;;;;;;;;5075570;28;20020;-56
2020/12/03 17:22:48;;;;;;;7.30;6.00;;;;;;;;;;5074713;28;20405;-55
2020/12/03 17:25:26;;;;;;;9.17;6.83;;;;;;;;;;5056443;28;20070;-57
2020/12/03 17:28:13;;;;;;;10.33;5.40;;;;;;;;;;5057569;28;20032;-56
2020/12/03 17:30:40;;;;;;;8.90;6.53;;;;;;;;;;5037386;28;20128;-56
2020/12/03 17:36:27;;;;;;;9.77;7.40;;;;;;;;;;5022940;28;20025;-56
2020/12/03 17:39:12;;;;;;;10.37;8.53;;;;;;;;;;5074454;28;20042;-53
2020/12/03 17:41:54;;;;;;;9.73;7.43;;;;;;;;;;5056539;28;20044;-57
2020/12/03 17:45:14;;;;;;;9.47;7.47;;;;;;;;;;5075354;28;20039;-57
2020/12/03 17:48:18;;;;;;;8.53;6.93;;;;;;;;;;5074869;28;20027;-56
2020/12/03 17:50:53;;;;;;;11.23;7.30;;;;;;;;;;5044863;28;20025;-57
2020/12/03 17:57:08;;;;;;;9.87;8.50;;;;;;;;;;5073762;28;20067;-57
2020/12/03 18:00:19;;;;;;;9.60;7.63;;;;;;;;;;5074386;28;20041;-57
2020/12/03 18:06:01;;;;;;;8.93;6.83;;;;;;;;;;5059935;28;20029;-56
2020/12/03 18:11:58;;;;;;;8.77;7.23;;;;;;;;;;5058112;28;20058;-54
2020/12/03 18:14:45;;;;;;;8.50;7.20;;;;;;;;;;5040176;28;20037;-55
2020/12/03 18:17:40;;;;;;;10.53;7.77;;;;;;;;;;5033050;28;20267;-55
2020/12/03 18:20:34;;;;;;;12.50;7.57;;;;;;;;;;5072167;28;20040;-55
2020/12/03 18:23:17;;;;;;;9.27;6.93;;;;;;;;;;4975676;28;20089;-55
2020/12/03 18:26:02;;;;;;;12.73;8.53;;;;;;;;;;5056313;28;20033;-56
2020/12/03 18:31:43;;;;;;;10.10;8.20;;;;;;;;;;5073919;28;20035;-53
2020/12/03 18:34:37;;;;;;;11.10;9.40;;;;;;;;;;5038836;28;20081;-52
2020/12/03 18:37:06;;;;;;;9.73;8.43;;;;;;;;;;5074378;28;20418;-55
2020/12/03 18:39:37;;;;;;;10.13;8.27;;;;;;;;;;5072988;28;20045;-54
2020/12/03 18:48:28;;;;;;;15.10;10.23;;;;;;;;;;4978734;28;20496;-55
2020/12/03 18:51:08;;;;;;;11.17;9.47;;;;;;;;;;5050281;28;20036;-56
2020/12/03 18:54:12;;;;;;;13.80;10.23;;;;;;;;;;5056009;28;20040;-55
2020/12/03 18:56:44;;;;;;;14.03;10.50;;;;;;;;;;5055378;28;20029;-54
2020/12/03 18:59:23;;;;;;;11.87;9.53;;;;;;;;;;5054183;28;20474;-53
2020/12/03 19:02:15;;;;;;;;;;;;;;;;;;;;;
2020/12/03 19:05:03;;;;;;;12.37;8.53;;;;;;;;;;5072581;28;20462;-53
2020/12/03 19:07:36;;;;;;;13.30;9.67;;;;;;;;;;5071803;28;20131;-54
2020/12/03 19:10:21;;;;;;;;;;;;;;;;;;;;;
2020/12/03 19:13:06;;;;;;;12.93;10.00;;;;;;;;;;5072639;28;20393;-53
2020/12/03 19:16:12;;;;;;;13.77;8.77;;;;;;;;;;5073834;28;20458;-54
2020/12/03 19:21:38;;;;;;;10.37;9.27;;;;;;;;;;5073421;28;20049;-56
2020/12/03 19:24:22;;;;;;;15.13;10.70;;;;;;;;;;5072749;28;20071;-56
2020/12/03 19:27:34;;;;;;;11.87;9.80;;;;;;;;;;5055128;28;20489;-55
2020/12/03 19:30:34;;;;;;;13.30;9.75;;;;;;;;;;5073424;28;20068;-56
2020/12/03 19:33:23;;;;;;;10.77;8.67;;;;;;;;;;5031169;28;20091;-55
2020/12/03 19:36:46;;;;;;;10.53;9.37;;;;;;;;;;5051915;28;20098;-57
2020/12/03 19:39:22;;;;;;;13.73;9.57;;;;;;;;;;4990344;28;20026;-57
2020/12/03 19:51:37;;;;;;;11.43;8.80;;;;;;;;;;5053216;28;20083;-57
2020/12/03 19:54:44;;;;;;;12.00;9.38;;;;;;;;;;5043674;28;20032;-57
2020/12/03 20:00:09;;;;;;;10.30;8.98;;;;;;;;;;5014734;28;20064;-56
2020/12/03 20:03:00;;;;;;;11.10;9.17;;;;;;;;;;5014671;28;20030;-57
2020/12/03 20:05:41;;;;;;;10.18;9.15;;;;;;;;;;4997638;28;20109;-57
2020/12/03 20:11:38;;;;;;;13.67;9.10;;;;;;;;;;4991069;28;20030;-57
2020/12/03 20:14:17;;;;;;;10.07;7.07;;;;;;;;;;5014100;28;20044;-57
2020/12/03 20:16:58;;;;;;;13.07;9.03;;;;;;;;;;5014015;28;20037;-56
2020/12/03 20:19:52;;;;;;;;;;;;;;;;;;;;;
2020/12/03 20:22:52;;;;;;;9.43;8.40;;;;;;;;;;5014231;28;20400;-57
2020/12/03 20:25:29;;;;;;;10.97;8.23;;;;;;;;;;5000343;28;20041;-56
2020/12/03 20:28:05;;;;;;;12.03;8.40;;;;;;;;;;4994822;28;20026;-54
2020/12/03 20:33:45;;;;;;;10.20;7.80;;;;;;;;;;5023295;28;20049;-55
2020/12/03 20:36:36;;;;;;;11.97;8.60;;;;;;;;;;5034082;28;20044;-55
2020/12/03 20:39:10;;;;;;;12.47;9.57;;;;;;;;;;5026821;28;20052;-57
2020/12/03 20:42:45;;;;;;;;;;;;;;;;;;;;;
2020/12/03 20:45:15;;;;;;;12.03;9.07;;;;;;;;;;5048177;28;20144;-55
2020/12/03 20:48:11;;;;;;;10.93;8.33;;;;;;;;;;5052883;28;20041;-55
2020/12/03 20:50:57;;;;;;;10.20;8.83;;;;;;;;;;5053906;28;20033;-56
2020/12/03 20:53:34;;;;;;;13.40;9.20;;;;;;;;;;5055658;28;20041;-56
2020/12/03 20:56:26;;;;;;;;;;;;;;;;;;;;;
2020/12/03 21:02:13;;;;;;;11.20;8.77;;;;;;;;;;5013419;28;20036;-57
2020/12/03 21:04:56;;;;;;;10.53;8.47;;;;;;;;;;5027818;28;20039;-56
2020/12/03 21:07:55;;;;;;;8.30;6.87;;;;;;;;;;5057188;28;20178;-56
2020/12/03 21:10:34;;;;;;;11.37;8.23;;;;;;;;;;5056315;28;20071;-55
2020/12/03 21:13:17;;;;;;;10.27;8.17;;;;;;;;;;5056669;28;20037;-56
2020/12/03 21:16:07;;;;;;;9.33;6.67;;;;;;;;;;5027234;28;20032;-54
2020/12/03 21:24:43;;;;;;;11.00;9.00;;;;;;;;;;5074717;28;20450;-56
2020/12/03 21:27:32;;;;;;;11.73;8.43;;;;;;;;;;5044310;28;20434;-55
2020/12/03 21:30:04;;;;;;;12.23;9.00;;;;;;;;;;5074272;28;20028;-55
2020/12/03 21:35:58;;;;;;;10.00;7.23;;;;;;;;;;5012727;28;20507;-56
2020/12/03 21:38:44;;;;;;;9.83;8.23;;;;;;;;;;5011854;28;20037;-56
2020/12/03 21:41:12;;;;;;;11.67;9.47;;;;;;;;;;4996023;28;20054;-56
2020/12/03 21:43:53;;;;;;;9.70;7.20;;;;;;;;;;4995743;28;20080;-56
2020/12/03 21:46:38;;;;;;;;;;;;;;;;;;;;;
2020/12/03 21:49:07;;;;;;;9.53;8.03;;;;;;;;;;5007786;28;19915;-56
2020/12/03 21:52:52;;;;;;;11.47;8.33;;;;;;;;;;5012741;28;20033;-55